Time;durP1;ratioP1;P1;durP2;ratioP2;P2;SDS_P1;SDS_P2;PMS_P1;PMS_P2;Temp;Humidity;BMP_temperature;BMP_pressure;BME280_temperature;BME280_humidity;BME280_pressure;Samples;Min_cycle;Max_cycle;Signal;HPM_P1;HPM_P2
2022/07/13 00:00:12;;;;;;;6.53;4.28;;;22.20;92.80;;;;;;5028438;28;20079;-44
2022/07/13 00:02:39;;;;;;;5.50;4.50;;;22.20;92.60;;;;;;5025853;28;20497;-45
2022/07/13 00:05:06;;;;;;;5.35;4.30;;;22.10;92.60;;;;;;5024416;28;20501;-44
2022/07/13 00:07:33;;;;;;;5.22;4.72;;;22.10;92.60;;;;;;5030521;28;20128;-44
2022/07/13 00:10:00;;;;;;;7.15;5.03;;;22.10;92.50;;;;;;5028450;28;20144;-44
2022/07/13 00:12:28;;;;;;;6.43;4.68;;;22.10;92.80;;;;;;5030625;28;20076;-45
2022/07/13 00:14:55;;;;;;;6.40;4.22;;;22.10;92.80;;;;;;5028420;28;20056;-45
2022/07/13 00:17:21;;;;;;;7.43;4.50;;;22.00;92.70;;;;;;5026094;28;20049;-45
2022/07/13 00:19:48;;;;;;;8.27;5.30;;;22.00;92.60;;;;;;5028220;28;20801;-44
2022/07/13 00:22:15;;;;;;;5.22;4.72;;;22.00;92.80;;;;;;5027013;28;20132;-44
2022/07/13 00:24:41;;;;;;;6.85;5.18;;;22.00;92.70;;;;;;5027517;28;20065;-44
2022/07/13 00:27:08;;;;;;;7.63;5.97;;;22.00;92.80;;;;;;5027609;28;20077;-43
2022/07/13 00:29:36;;;;;;;6.10;4.65;;;22.00;93.00;;;;;;5027695;28;20172;-44
2022/07/13 00:32:03;;;;;;;7.82;5.30;;;21.90;92.70;;;;;;5028824;28;20127;-44
2022/07/13 00:34:32;;;;;;;6.85;6.20;;;21.90;92.70;;;;;;5027073;28;20073;-44
2022/07/13 00:36:59;;;;;;;6.70;5.85;;;21.90;93.00;;;;;;5027765;28;20573;-44
2022/07/13 00:39:26;;;;;;;6.63;5.28;;;21.90;93.00;;;;;;5028133;28;20479;-44
2022/07/13 00:41:52;;;;;;;12.15;6.80;;;21.90;93.20;;;;;;5028281;28;20188;-43
2022/07/13 00:44:19;;;;;;;10.68;6.45;;;21.90;93.30;;;;;;5025180;28;20140;-43
2022/07/13 00:46:51;;;;;;;7.22;6.43;;;21.90;93.30;;;;;;5061130;28;20133;-44
2022/07/13 00:49:17;;;;;;;10.88;7.38;;;21.90;93.40;;;;;;5027258;28;20446;-44
2022/07/13 00:51:44;;;;;;;7.30;5.40;;;21.80;93.40;;;;;;5027507;28;20057;-43
2022/07/13 00:54:11;;;;;;;5.80;5.20;;;21.80;93.30;;;;;;5027621;28;20161;-43
2022/07/13 00:56:38;;;;;;;11.30;5.47;;;21.80;93.30;;;;;;5025030;28;20153;-43
2022/07/13 00:59:05;;;;;;;8.75;5.22;;;21.80;93.10;;;;;;5025324;28;20128;-43
2022/07/13 01:01:32;;;;;;;9.13;5.35;;;21.80;93.40;;;;;;5029007;28;20144;-44
2022/07/13 01:04:01;;;;;;;6.53;5.93;;;21.70;93.00;;;;;;5026924;28;20057;-43
2022/07/13 01:06:27;;;;;;;9.00;7.07;;;21.70;93.00;;;;;;5026556;28;20137;-43
2022/07/13 01:08:54;;;;;;;9.23;6.03;;;21.70;93.20;;;;;;5025189;28;20458;-43
2022/07/13 01:11:21;;;;;;;7.97;6.68;;;21.70;93.20;;;;;;5027501;28;20128;-43
2022/07/13 01:13:48;;;;;;;8.88;6.50;;;21.70;93.20;;;;;;5031750;28;20832;-44
2022/07/13 01:16:15;;;;;;;8.98;6.20;;;21.70;93.20;;;;;;5031045;28;20053;-43
2022/07/13 01:18:41;;;;;;;6.47;5.72;;;21.70;93.30;;;;;;5031195;28;20080;-43
2022/07/13 01:21:10;;;;;;;7.68;6.80;;;21.70;93.10;;;;;;5031434;28;20045;-43
2022/07/13 01:23:39;;;;;;;8.07;6.43;;;21.60;93.10;;;;;;5028127;28;20132;-44
2022/07/13 01:26:07;;;;;;;11.63;7.20;;;21.60;93.10;;;;;;5030036;28;20045;-43
2022/07/13 01:28:34;;;;;;;10.65;7.50;;;21.60;93.10;;;;;;5031809;28;20081;-43
2022/07/13 01:31:00;;;;;;;10.98;6.70;;;21.60;93.10;;;;;;5033431;28;20249;-42
2022/07/13 01:33:27;;;;;;;7.60;6.30;;;21.50;93.00;;;;;;5028775;28;20054;-43
2022/07/13 01:35:55;;;;;;;7.78;6.50;;;21.50;93.10;;;;;;5030362;28;20064;-42
2022/07/13 01:38:22;;;;;;;6.93;6.22;;;21.50;93.00;;;;;;5026974;28;20498;-43
2022/07/13 01:40:50;;;;;;;9.82;6.65;;;21.50;92.90;;;;;;5029321;28;20120;-43
2022/07/13 01:43:17;;;;;;;8.68;6.10;;;21.50;92.90;;;;;;5027100;28;20061;-44
2022/07/13 01:45:45;;;;;;;9.77;6.22;;;21.50;92.80;;;;;;5028659;28;20505;-43
2022/07/13 01:48:12;;;;;;;10.70;6.80;;;21.50;92.90;;;;;;5030782;28;20053;-43
2022/07/13 01:50:38;;;;;;;12.15;6.68;;;21.50;92.90;;;;;;5028288;28;20045;-43
2022/07/13 01:53:05;;;;;;;7.88;7.05;;;21.50;92.90;;;;;;5030859;28;20137;-43
2022/07/13 01:55:32;;;;;;;9.30;6.80;;;21.40;92.90;;;;;;5030588;28;20046;-44
2022/07/13 01:58:00;;;;;;;12.93;7.45;;;21.40;92.80;;;;;;5030534;28;20064;-43
2022/07/13 02:00:27;;;;;;;9.07;7.10;;;21.40;92.80;;;;;;5027649;28;20051;-43
2022/07/13 02:02:54;;;;;;;7.95;7.20;;;21.40;92.80;;;;;;5030413;28;20550;-42
2022/07/13 02:05:21;;;;;;;8.98;7.63;;;21.40;92.90;;;;;;5033673;28;20144;-43
2022/07/13 02:07:47;;;;;;;8.95;7.25;;;21.40;92.90;;;;;;5033022;28;20136;-42
2022/07/13 02:10:14;;;;;;;12.00;7.57;;;21.40;92.80;;;;;;5025070;28;20849;-42
2022/07/13 02:12:41;;;;;;;8.48;6.80;;;21.40;92.80;;;;;;5028098;28;20128;-43
2022/07/13 02:15:10;;;;;;;9.77;7.38;;;21.40;92.80;;;;;;5029671;28;20133;-43
2022/07/13 02:17:37;;;;;;;10.88;7.10;;;21.40;92.80;;;;;;5028768;28;20140;-43
2022/07/13 02:20:05;;;;;;;8.30;6.63;;;21.40;92.80;;;;;;5025815;28;20061;-43
2022/07/13 02:22:41;;;;;;;10.25;7.00;;;21.40;92.70;;;;;;5027566;28;20144;-44
2022/07/13 02:25:09;;;;;;;7.20;6.30;;;21.40;92.70;;;;;;5028546;28;20047;-44
2022/07/13 02:27:36;;;;;;;10.30;7.07;;;21.30;92.70;;;;;;5025439;28;20544;-44
2022/07/13 02:30:03;;;;;;;10.45;7.47;;;21.40;92.70;;;;;;5027043;28;20049;-44
2022/07/13 02:32:31;;;;;;;8.23;6.90;;;21.40;92.60;;;;;;5025244;28;20052;-44
2022/07/13 02:34:58;;;;;;;8.05;7.25;;;21.30;92.70;;;;;;5029920;28;20077;-43
2022/07/13 02:37:25;;;;;;;9.18;6.90;;;21.40;92.70;;;;;;5029355;28;20071;-44
2022/07/13 02:39:55;;;;;;;7.43;6.50;;;21.40;92.70;;;;;;5027213;28;20176;-44
2022/07/13 02:42:22;;;;;;;10.27;7.05;;;21.40;92.70;;;;;;5028524;28;20390;-44
2022/07/13 02:44:49;;;;;;;7.88;6.65;;;21.30;92.70;;;;;;5027391;28;20133;-43
2022/07/13 02:47:16;;;;;;;7.93;7.13;;;21.30;92.70;;;;;;5026471;28;20633;-43
2022/07/13 02:49:44;;;;;;;8.27;6.80;;;21.30;92.70;;;;;;5028030;28;20046;-43
2022/07/13 02:52:11;;;;;;;9.23;6.88;;;21.30;92.70;;;;;;5027934;28;20136;-43
2022/07/13 02:54:37;;;;;;;7.70;6.55;;;21.30;92.70;;;;;;5030000;28;20060;-43
2022/07/13 02:57:05;;;;;;;7.95;7.13;;;21.30;92.70;;;;;;5027066;28;20056;-44
2022/07/13 02:59:33;;;;;;;8.25;7.03;;;21.30;92.70;;;;;;5029296;28;20466;-43
2022/07/13 03:01:59;;;;;;;8.23;6.57;;;21.30;92.70;;;;;;5032447;28;20052;-43
2022/07/13 03:04:26;;;;;;;7.25;6.38;;;21.30;92.70;;;;;;5028096;28;20092;-44
2022/07/13 03:06:54;;;;;;;7.80;6.55;;;21.30;92.70;;;;;;5027656;28;20045;-43
2022/07/13 03:09:21;;;;;;;12.00;6.88;;;21.30;92.70;;;;;;5028137;28;20052;-42
2022/07/13 03:11:48;;;;;;;11.50;6.70;;;21.30;92.70;;;;;;5028445;28;20095;-43
2022/07/13 03:14:16;;;;;;;7.55;6.05;;;21.30;92.70;;;;;;5026833;28;20045;-43
2022/07/13 03:16:43;;;;;;;10.27;7.13;;;21.30;92.70;;;;;;5028397;28;20049;-42
2022/07/13 03:19:10;;;;;;;7.80;7.03;;;21.30;92.70;;;;;;5028538;28;20056;-43
2022/07/13 03:21:37;;;;;;;9.85;7.07;;;21.20;92.60;;;;;;5029873;28;20049;-43
2022/07/13 03:24:05;;;;;;;9.15;6.57;;;21.20;92.70;;;;;;5030970;28;20049;-43
2022/07/13 03:26:32;;;;;;;8.73;7.65;;;21.20;92.80;;;;;;5028315;28;20049;-43
2022/07/13 03:28:59;;;;;;;12.98;7.95;;;21.20;92.80;;;;;;5027404;28;20114;-44
2022/07/13 03:31:26;;;;;;;7.70;6.90;;;21.20;92.80;;;;;;5027295;28;20057;-42
2022/07/13 03:33:53;;;;;;;9.70;7.45;;;21.20;92.80;;;;;;5025861;28;20116;-43
2022/07/13 03:36:19;;;;;;;11.05;7.10;;;21.20;92.80;;;;;;5027248;28;20041;-43
2022/07/13 03:38:46;;;;;;;7.78;6.50;;;21.20;92.80;;;;;;5028357;28;20126;-44
2022/07/13 03:41:14;;;;;;;8.13;7.00;;;21.20;92.70;;;;;;5027944;28;20133;-43
2022/07/13 03:43:41;;;;;;;12.35;7.78;;;21.20;92.70;;;;;;5027352;28;20053;-44
2022/07/13 03:46:08;;;;;;;8.50;7.20;;;21.20;92.70;;;;;;5025408;28;20056;-43
2022/07/13 03:48:35;;;;;;;9.73;7.47;;;21.10;92.80;;;;;;5027675;28;20060;-43
2022/07/13 03:51:02;;;;;;;8.30;7.07;;;21.20;92.80;;;;;;5027518;28;20069;-42
2022/07/13 03:53:28;;;;;;;6.90;6.20;;;21.20;92.80;;;;;;5028892;28;20504;-43
2022/07/13 03:55:55;;;;;;;9.73;7.13;;;21.20;92.80;;;;;;5025711;28;20053;-44
2022/07/13 03:58:23;;;;;;;10.90;7.00;;;21.20;92.80;;;;;;5026215;28;20050;-43
2022/07/13 04:00:50;;;;;;;10.02;6.90;;;21.20;92.80;;;;;;5025491;28;20124;-43
2022/07/13 04:03:17;;;;;;;7.50;6.40;;;21.20;92.90;;;;;;5021597;28;20498;-43
2022/07/13 04:05:43;;;;;;;8.30;6.97;;;21.20;92.80;;;;;;5028281;28;20133;-43
2022/07/13 04:08:10;;;;;;;7.88;6.53;;;21.20;93.00;;;;;;5026082;28;20080;-44
2022/07/13 04:10:37;;;;;;;6.63;5.93;;;21.20;92.80;;;;;;5025504;28;20140;-43
2022/07/13 04:13:04;;;;;;;7.88;6.78;;;21.20;92.70;;;;;;5027269;28;20136;-42
2022/07/13 04:15:32;;;;;;;12.93;7.00;;;21.20;92.60;;;;;;5025669;28;20132;-43
2022/07/13 04:17:58;;;;;;;7.28;6.55;;;21.20;92.50;;;;;;5026559;28;20508;-44
2022/07/13 04:20:25;;;;;;;7.82;6.32;;;21.20;92.50;;;;;;5028971;28;20046;-44
2022/07/13 04:22:52;;;;;;;7.38;6.55;;;21.20;92.50;;;;;;5028411;28;20128;-43
2022/07/13 04:25:19;;;;;;;7.78;6.55;;;21.20;92.50;;;;;;5026917;28;20188;-44
2022/07/13 04:27:45;;;;;;;7.00;6.18;;;21.20;92.40;;;;;;5029055;28;20140;-43
2022/07/13 04:30:12;;;;;;;9.50;6.00;;;21.20;92.30;;;;;;5027874;28;20136;-43
2022/07/13 04:32:40;;;;;;;10.45;6.50;;;21.20;92.30;;;;;;5025348;28;20529;-44
2022/07/13 04:35:07;;;;;;;7.20;6.50;;;21.20;92.30;;;;;;5025817;28;20081;-44
2022/07/13 04:37:35;;;;;;;7.53;6.57;;;21.20;92.20;;;;;;5025373;28;20555;-44
2022/07/13 04:40:03;;;;;;;7.38;5.95;;;21.30;92.20;;;;;;5024191;28;20056;-44
2022/07/13 04:42:30;;;;;;;6.88;5.88;;;21.30;92.10;;;;;;5027055;28;20497;-44
2022/07/13 04:44:56;;;;;;;8.60;6.55;;;21.30;92.20;;;;;;5028045;28;20547;-43
2022/07/13 04:47:23;;;;;;;10.48;6.03;;;21.30;92.10;;;;;;5026010;28;20132;-43
2022/07/13 04:49:51;;;;;;;8.68;5.82;;;21.30;92.10;;;;;;5021504;28;20048;-43
2022/07/13 04:52:18;;;;;;;11.13;5.80;;;21.30;92.10;;;;;;5027676;28;20088;-43
2022/07/13 04:54:45;;;;;;;7.05;5.13;;;21.40;92.30;;;;;;5028426;28;20100;-42
2022/07/13 04:57:12;;;;;;;6.32;5.35;;;21.40;92.30;;;;;;5024059;28;20041;-44
2022/07/13 04:59:39;;;;;;;5.57;4.95;;;21.40;92.30;;;;;;5022586;28;20553;-44
2022/07/13 05:02:05;;;;;;;6.20;4.40;;;21.40;92.20;;;;;;5026510;28;20056;-43
2022/07/13 05:04:32;;;;;;;7.88;4.40;;;21.40;92.50;;;;;;5026898;28;20041;-43
2022/07/13 05:07:00;;;;;;;6.05;3.95;;;21.50;92.20;;;;;;5022191;28;20081;-45
2022/07/13 05:09:27;;;;;;;7.97;4.22;;;21.40;92.20;;;;;;5027773;28;20051;-43
2022/07/13 05:11:54;;;;;;;4.80;4.05;;;21.50;92.50;;;;;;5026524;28;20132;-44
2022/07/13 05:14:20;;;;;;;4.20;3.58;;;21.50;92.20;;;;;;5025302;28;20129;-43
2022/07/13 05:16:48;;;;;;;3.72;3.35;;;21.60;92.40;;;;;;5025766;28;20375;-43
2022/07/13 05:19:15;;;;;;;4.32;3.88;;;21.60;92.40;;;;;;5025431;28;20129;-42
2022/07/13 05:21:42;;;;;;;6.35;3.67;;;21.60;92.50;;;;;;5026528;28;20125;-42
2022/07/13 05:24:10;;;;;;;9.45;3.88;;;21.70;92.40;;;;;;5026846;28;20046;-42
2022/07/13 05:26:37;;;;;;;4.43;3.85;;;21.70;92.50;;;;;;5026344;28;20485;-43
2022/07/13 05:29:06;;;;;;;8.30;4.47;;;21.70;92.40;;;;;;5026029;28;20048;-44
2022/07/13 05:31:32;;;;;;;7.97;4.10;;;21.70;92.20;;;;;;5028025;28;20052;-44
2022/07/13 05:33:59;;;;;;;6.82;4.00;;;21.80;92.10;;;;;;5026187;28;20063;-44
2022/07/13 05:36:26;;;;;;;4.60;3.97;;;21.80;92.10;;;;;;5025362;28;20056;-43
2022/07/13 05:38:52;;;;;;;4.78;4.00;;;21.90;91.90;;;;;;5024270;28;20136;-44
2022/07/13 05:41:20;;;;;;;4.32;3.60;;;21.90;91.80;;;;;;5025216;28;20037;-44
2022/07/13 05:43:48;;;;;;;6.78;3.60;;;22.00;91.70;;;;;;5027880;28;20088;-42
2022/07/13 05:46:14;;;;;;;6.32;3.50;;;22.00;91.60;;;;;;5023351;28;20055;-44
2022/07/13 05:48:41;;;;;;;3.55;3.25;;;22.10;91.40;;;;;;5018671;28;20045;-43
2022/07/13 05:51:08;;;;;;;6.32;3.58;;;22.20;91.30;;;;;;5021639;28;20062;-43
2022/07/13 05:53:35;;;;;;;4.82;3.28;;;22.20;91.00;;;;;;5024213;28;20073;-43
2022/07/13 05:56:01;;;;;;;4.90;3.25;;;22.20;91.00;;;;;;5024730;28;20103;-43
2022/07/13 05:58:31;;;;;;;7.10;3.50;;;22.30;91.20;;;;;;5024978;28;20049;-43
2022/07/13 06:00:57;;;;;;;6.65;3.20;;;22.40;91.20;;;;;;5025090;28;20054;-44
2022/07/13 06:03:24;;;;;;;8.68;3.05;;;22.40;91.00;;;;;;5030971;28;20091;-44
2022/07/13 06:05:51;;;;;;;4.00;3.40;;;22.50;91.00;;;;;;5023393;28;20083;-44
2022/07/13 06:08:18;;;;;;;4.85;3.17;;;22.60;90.70;;;;;;5029289;28;20050;-44
2022/07/13 06:10:45;;;;;;;3.88;3.33;;;22.70;90.90;;;;;;5028684;28;20129;-44
2022/07/13 06:13:11;;;;;;;8.68;4.18;;;22.70;90.90;;;;;;5028436;28;20417;-45
2022/07/13 06:15:39;;;;;;;4.13;3.45;;;22.80;90.90;;;;;;5057506;28;20128;-43
2022/07/13 06:18:06;;;;;;;4.38;3.35;;;22.90;90.80;;;;;;5027248;28;20076;-43
2022/07/13 06:20:33;;;;;;;8.07;3.50;;;22.90;91.10;;;;;;5025761;28;20187;-44
2022/07/13 06:23:12;;;;;;;4.30;3.00;;;23.00;90.60;;;;;;5024082;28;20493;-44
2022/07/13 06:25:39;;;;;;;6.35;3.33;;;23.10;90.50;;;;;;5026333;28;20207;-44
2022/07/13 06:28:05;;;;;;;5.78;2.90;;;23.20;90.70;;;;;;5027848;28;20125;-44
2022/07/13 06:30:32;;;;;;;5.88;4.00;;;23.30;90.80;;;;;;5027478;28;20069;-44
2022/07/13 06:33:00;;;;;;;4.18;3.50;;;23.30;90.70;;;;;;5029346;28;20076;-44
2022/07/13 06:35:27;;;;;;;7.50;3.88;;;23.40;90.60;;;;;;5028890;28;20051;-43
2022/07/13 06:37:54;;;;;;;7.00;3.83;;;23.40;90.50;;;;;;5026612;28;20757;-42
2022/07/13 06:40:20;;;;;;;7.28;4.30;;;23.60;90.30;;;;;;5029035;28;20049;-43
2022/07/13 06:42:47;;;;;;;8.02;4.80;;;23.60;90.00;;;;;;5028698;28;20053;-43
2022/07/13 06:45:14;;;;;;;8.10;4.78;;;23.70;89.80;;;;;;5027444;28;20077;-43
2022/07/13 06:47:42;;;;;;;8.25;4.80;;;23.80;90.10;;;;;;5027953;28;20450;-43
2022/07/13 06:50:10;;;;;;;6.55;5.00;;;23.90;89.80;;;;;;5025928;28;20184;-44
2022/07/13 06:52:37;;;;;;;6.80;5.07;;;24.10;89.50;;;;;;5028383;28;20049;-43
2022/07/13 06:55:06;;;;;;;8.00;5.25;;;24.20;89.40;;;;;;5026964;28;20049;-43
2022/07/13 06:57:33;;;;;;;14.68;5.93;;;24.30;89.00;;;;;;5026111;28;20053;-44
2022/07/13 07:00:00;;;;;;;8.75;6.70;;;24.50;88.90;;;;;;5026917;28;20136;-41
2022/07/13 07:02:26;;;;;;;7.50;6.22;;;24.60;88.60;;;;;;5026806;28;20053;-43
2022/07/13 07:04:54;;;;;;;12.40;6.85;;;24.70;88.70;;;;;;5061004;28;20080;-42
2022/07/13 07:07:22;;;;;;;10.30;7.47;;;24.80;88.30;;;;;;5028508;28;20445;-42
2022/07/13 07:09:49;;;;;;;10.32;7.50;;;24.90;88.00;;;;;;5026501;28;20469;-43
2022/07/13 07:12:16;;;;;;;8.55;7.32;;;24.90;87.40;;;;;;5028072;28;20413;-43
2022/07/13 07:14:42;;;;;;;10.55;7.25;;;24.80;87.80;;;;;;5024493;28;20140;-43
2022/07/13 07:17:09;;;;;;;14.52;7.93;;;24.80;88.00;;;;;;5027237;28;20081;-50
2022/07/13 07:19:36;;;;;;;10.25;7.05;;;24.80;88.00;;;;;;5025927;28;20382;-43
2022/07/13 07:22:03;;;;;;;9.75;6.72;;;24.70;88.10;;;;;;5027507;28;20136;-43
2022/07/13 07:24:31;;;;;;;12.00;7.20;;;24.70;89.10;;;;;;5027235;28;20140;-43
2022/07/13 07:26:58;;;;;;;9.20;6.78;;;24.70;88.70;;;;;;5025001;28;20069;-42
2022/07/13 07:29:25;;;;;;;8.88;7.25;;;24.70;88.70;;;;;;5026026;28;20121;-43
2022/07/13 07:31:52;;;;;;;18.83;8.50;;;24.60;88.90;;;;;;5027525;28;20481;-43
2022/07/13 07:34:18;;;;;;;9.45;6.45;;;24.70;89.40;;;;;;5027898;28;20053;-43
2022/07/13 07:36:45;;;;;;;10.73;6.93;;;24.70;89.30;;;;;;5027669;28;20050;-42
2022/07/13 07:39:12;;;;;;;11.85;7.68;;;24.70;89.20;;;;;;5029266;28;20148;-42
2022/07/13 07:41:41;;;;;;;9.65;7.20;;;24.70;89.90;;;;;;5027574;28;20053;-44
2022/07/13 07:44:08;;;;;;;12.70;7.88;;;24.80;89.70;;;;;;5025432;28;20064;-43
2022/07/13 07:46:35;;;;;;;11.88;7.97;;;24.80;90.00;;;;;;5025486;28;20408;-43
2022/07/13 07:49:03;;;;;;;8.40;6.90;;;24.90;89.50;;;;;;5027397;28;20060;-43
2022/07/13 07:51:30;;;;;;;11.00;7.38;;;24.90;89.50;;;;;;5028114;28;20096;-43
2022/07/13 07:53:56;;;;;;;10.27;7.43;;;24.90;90.00;;;;;;5026982;28;20132;-43
2022/07/13 07:56:23;;;;;;;11.07;8.07;;;25.00;89.70;;;;;;5025379;28;20073;-42
2022/07/13 07:58:51;;;;;;;13.70;8.07;;;25.20;89.90;;;;;;5026009;28;20505;-43
2022/07/13 08:01:18;;;;;;;13.90;8.30;;;25.40;89.80;;;;;;5024594;28;20057;-43
2022/07/13 08:03:45;;;;;;;9.65;7.45;;;25.60;89.40;;;;;;5029374;28;20045;-43
2022/07/13 08:06:12;;;;;;;8.23;7.30;;;25.80;89.00;;;;;;5030990;28;20069;-43
2022/07/13 08:08:39;;;;;;;12.95;9.80;;;26.10;88.90;;;;;;5026570;28;20052;-44
2022/07/13 08:11:07;;;;;;;11.10;8.50;;;26.20;88.00;;;;;;5030885;28;20493;-43
2022/07/13 08:13:34;;;;;;;11.25;8.18;;;26.30;87.70;;;;;;5024791;28;20045;-44
2022/07/13 08:16:03;;;;;;;13.88;9.15;;;26.40;87.80;;;;;;5008550;28;20136;-43
2022/07/13 08:18:29;;;;;;;10.35;8.65;;;26.50;87.70;;;;;;5019629;28;20074;-44
2022/07/13 08:20:56;;;;;;;10.07;6.53;;;26.50;87.50;;;;;;5031408;28;20136;-43
2022/07/13 08:26:07;;;;;;;10.63;6.13;;;26.80;87.20;;;;;;5023733;28;20049;-44
2022/07/13 08:28:34;;;;;;;6.78;5.95;;;26.90;86.70;;;;;;5014241;28;20089;-43
2022/07/13 08:31:02;;;;;;;11.40;8.02;;;27.10;86.20;;;;;;5029241;28;20045;-43
2022/07/13 08:39:02;;;;;;;8.60;5.25;;;27.50;84.10;;;;;;5026596;28;20417;-43
2022/07/13 08:41:30;;;;;;;8.25;5.05;;;27.60;84.70;;;;;;5018337;28;20572;-44
2022/07/13 08:43:56;;;;;;;8.02;5.80;;;27.80;84.50;;;;;;5030083;28;20144;-44
2022/07/13 08:46:25;;;;;;;9.00;7.05;;;27.90;84.60;;;;;;5022354;28;20048;-44
2022/07/13 08:48:51;;;;;;;8.20;5.93;;;28.00;83.10;;;;;;5023214;28;20144;-43
2022/07/13 08:51:18;;;;;;;11.25;7.07;;;28.20;82.80;;;;;;5010502;28;20053;-43
2022/07/13 08:53:45;;;;;;;8.05;5.00;;;28.30;82.60;;;;;;5021765;28;20136;-43
2022/07/13 08:56:12;;;;;;;6.38;4.95;;;28.40;82.10;;;;;;5026505;28;21247;-42
2022/07/13 08:58:39;;;;;;;6.38;5.00;;;28.50;82.50;;;;;;5025682;28;20125;-43
2022/07/13 09:01:08;;;;;;;11.40;5.10;;;28.70;82.00;;;;;;5026166;28;20120;-43
2022/07/13 09:03:36;;;;;;;9.65;5.88;;;28.80;81.60;;;;;;5023605;28;20528;-43
2022/07/13 09:06:03;;;;;;;7.47;5.82;;;28.90;81.40;;;;;;5024911;28;20053;-43
2022/07/13 09:08:30;;;;;;;8.07;6.38;;;29.00;80.70;;;;;;5026671;28;20045;-43
2022/07/13 09:10:58;;;;;;;7.93;6.07;;;29.10;80.60;;;;;;5024972;28;20481;-44
2022/07/13 09:13:38;;;;;;;7.25;4.95;;;29.20;79.90;;;;;;5025323;28;20049;-43
2022/07/13 09:16:18;;;;;;;6.38;4.75;;;29.30;80.40;;;;;;5022202;28;20056;-42
2022/07/13 09:18:47;;;;;;;10.90;4.75;;;29.40;80.70;;;;;;5025917;28;20145;-44
2022/07/13 09:21:14;;;;;;;10.25;5.22;;;29.50;79.30;;;;;;5024149;28;20119;-44
2022/07/13 09:23:40;;;;;;;9.45;4.50;;;29.70;79.30;;;;;;5030051;28;20548;-44
2022/07/13 09:26:07;;;;;;;7.97;5.20;;;29.80;78.70;;;;;;5025089;28;20481;-43
2022/07/13 09:28:44;;;;;;;6.78;4.18;;;29.90;77.60;;;;;;5025170;28;20060;-42
2022/07/13 09:31:11;;;;;;;6.55;4.10;;;30.10;77.90;;;;;;5046150;28;20054;-43
2022/07/13 09:33:38;;;;;;;8.57;4.65;;;30.20;77.20;;;;;;5027445;28;20100;-44
2022/07/13 09:36:13;;;;;;;9.27;5.03;;;30.30;76.30;;;;;;5035120;28;20057;-44
2022/07/13 09:38:41;;;;;;;11.52;4.55;;;30.30;75.90;;;;;;5032983;28;20141;-44
2022/07/13 09:41:19;;;;;;;11.50;4.43;;;30.40;76.10;;;;;;5028669;28;20061;-43
2022/07/13 09:46:50;;;;;;;6.60;4.20;;;30.60;75.80;;;;;;5034038;28;20064;-42
2022/07/13 09:49:17;;;;;;;7.25;3.85;;;30.60;74.00;;;;;;5030060;28;20057;-43
2022/07/13 09:51:45;;;;;;;7.32;3.60;;;30.70;74.60;;;;;;5034004;28;20046;-44
2022/07/13 09:54:12;;;;;;;8.00;3.47;;;30.90;73.80;;;;;;5033972;28;20107;-44
2022/07/13 09:56:39;;;;;;;5.85;3.72;;;30.90;72.60;;;;;;5030796;28;20434;-44
2022/07/13 09:59:07;;;;;;;9.02;3.50;;;30.90;72.20;;;;;;5030462;28;20084;-44
2022/07/13 10:01:33;;;;;;;11.60;3.25;;;31.00;71.90;;;;;;5034360;28;20131;-44
2022/07/13 10:04:00;;;;;;;5.88;3.42;;;31.00;71.80;;;;;;5029508;28;20109;-44
2022/07/13 10:06:27;;;;;;;4.80;2.50;;;31.20;71.80;;;;;;5048405;28;20054;-44
2022/07/13 10:08:55;;;;;;;6.63;2.90;;;31.30;71.00;;;;;;5030339;28;20080;-43
2022/07/13 10:11:22;;;;;;;9.70;2.95;;;31.40;70.00;;;;;;5031616;28;20084;-43
2022/07/13 10:13:48;;;;;;;4.43;3.05;;;31.40;68.90;;;;;;5033487;28;20124;-45
2022/07/13 10:16:15;;;;;;;4.95;3.03;;;31.50;69.30;;;;;;5031836;28;20045;-43
2022/07/13 10:18:42;;;;;;;5.40;2.22;;;31.60;67.60;;;;;;5029596;28;20517;-43
2022/07/13 10:21:13;;;;;;;2.83;2.28;;;31.70;67.40;;;;;;5021413;28;20053;-43
2022/07/13 10:23:39;;;;;;;3.80;2.50;;;31.80;66.60;;;;;;5028094;28;20063;-44
2022/07/13 10:26:20;;;;;;;4.63;2.10;;;31.90;65.80;;;;;;5032283;28;20045;-44
2022/07/13 10:29:03;;;;;;;5.85;2.10;;;32.00;65.10;;;;;;5021099;28;20077;-44
2022/07/13 10:31:31;;;;;;;6.25;2.00;;;31.90;65.30;;;;;;5029938;28;20116;-43
2022/07/13 10:33:58;;;;;;;5.18;2.30;;;31.90;64.50;;;;;;5028110;28;20152;-43
2022/07/13 10:36:54;;;;;;;4.90;2.00;;;32.00;64.30;;;;;;5028261;28;20136;-44
2022/07/13 10:39:22;;;;;;;6.65;1.95;;;32.10;64.80;;;;;;5026989;28;20166;-45
2022/07/13 10:41:57;;;;;;;11.00;2.00;;;32.30;63.20;;;;;;5033148;28;20049;-43
2022/07/13 10:44:32;;;;;;;3.05;2.15;;;32.30;63.10;;;;;;5024336;28;20071;-43
2022/07/13 10:46:59;;;;;;;3.17;2.10;;;32.40;63.20;;;;;;5034317;28;20454;-43
2022/07/13 10:49:51;;;;;;;3.08;1.60;;;32.50;62.80;;;;;;5030712;28;20060;-43
2022/07/13 10:52:49;;;;;;;3.95;1.80;;;32.70;63.40;;;;;;5019231;28;20103;-43
2022/07/13 10:55:29;;;;;;;5.55;2.00;;;32.80;63.20;;;;;;4972024;28;20086;-43
2022/07/13 10:57:57;;;;;;;3.70;1.80;;;33.00;61.30;;;;;;5023472;28;20050;-44
2022/07/13 11:00:38;;;;;;;2.13;1.73;;;33.00;60.10;;;;;;5031855;28;20050;-43
2022/07/13 11:03:06;;;;;;;2.60;1.70;;;32.80;60.60;;;;;;5029359;28;20053;-43
2022/07/13 11:05:35;;;;;;;4.20;2.08;;;32.70;62.20;;;;;;5034580;28;20133;-44
2022/07/13 11:08:12;;;;;;;7.72;2.25;;;32.80;60.60;;;;;;5028932;28;20063;-43
2022/07/13 11:10:38;;;;;;;5.90;2.08;;;32.80;60.10;;;;;;5030625;28;20053;-43
2022/07/13 11:13:09;;;;;;;5.53;2.17;;;32.80;60.40;;;;;;5034358;28;20136;-43
2022/07/13 11:15:43;;;;;;;5.10;2.10;;;33.00;59.10;;;;;;5033515;28;20049;-43
2022/07/13 11:18:30;;;;;;;4.30;1.80;;;33.10;59.70;;;;;;5032034;28;20045;-43
2022/07/13 11:20:58;;;;;;;3.47;1.70;;;33.20;60.60;;;;;;5033713;28;20409;-43
2022/07/13 11:26:20;;;;;;;4.97;1.88;;;33.60;57.40;;;;;;5033782;28;20057;-43
2022/07/13 11:28:51;;;;;;;12.07;2.05;;;33.60;56.40;;;;;;5033425;28;20057;-43
2022/07/13 11:31:18;;;;;;;5.65;1.70;;;33.50;56.50;;;;;;5030458;28;20550;-43
2022/07/13 11:33:49;;;;;;;6.05;1.70;;;33.50;56.40;;;;;;5027613;28;20091;-44
2022/07/13 11:36:19;;;;;;;4.93;1.85;;;33.60;56.80;;;;;;5030078;28;20048;-43
2022/07/13 11:38:46;;;;;;;4.25;1.80;;;33.60;56.20;;;;;;5030524;28;20077;-44
2022/07/13 11:41:18;;;;;;;5.03;1.85;;;33.60;56.00;;;;;;5029059;28;20498;-43
2022/07/13 11:43:50;;;;;;;2.75;1.58;;;33.60;55.40;;;;;;5030703;28;20509;-44
2022/07/13 11:46:23;;;;;;;4.38;1.90;;;33.80;55.80;;;;;;5029767;28;20124;-44
2022/07/13 11:48:57;;;;;;;5.30;1.55;;;33.90;54.30;;;;;;5031507;28;20064;-43
2022/07/13 11:51:24;;;;;;;9.85;1.80;;;33.80;54.10;;;;;;5032651;28;20124;-43
2022/07/13 11:53:51;;;;;;;3.60;1.65;;;33.70;53.70;;;;;;5029411;28;20138;-43
2022/07/13 11:56:18;;;;;;;2.42;1.48;;;33.70;54.10;;;;;;5030896;28;20140;-44
2022/07/13 11:58:47;;;;;;;4.70;1.88;;;33.90;54.20;;;;;;5033770;28;20041;-44
2022/07/13 12:01:17;;;;;;;2.50;1.50;;;34.10;53.20;;;;;;5031769;28;20079;-44
2022/07/13 12:03:47;;;;;;;4.80;1.67;;;34.10;54.00;;;;;;5030111;28;20081;-44
2022/07/13 12:06:14;;;;;;;;;;;34.00;53.30;;;;;;5030377;28;20558;-44
2022/07/13 12:08:41;;;;;;;6.18;2.22;;;33.80;53.70;;;;;;5032764;28;19924;-44
2022/07/13 12:11:08;;;;;;;3.83;2.03;;;33.60;54.40;;;;;;5031873;28;20076;-44
2022/07/13 12:13:36;;;;;;;2.38;1.55;;;33.50;54.20;;;;;;5030309;28;20052;-44
2022/07/13 12:16:03;;;;;;;5.18;1.63;;;33.30;55.60;;;;;;5031664;28;20089;-44
2022/07/13 12:18:31;;;;;;;4.15;1.58;;;33.30;56.30;;;;;;5031876;28;20134;-44
2022/07/13 12:20:58;;;;;;;5.05;1.80;;;33.40;56.30;;;;;;5031506;28;20115;-44
2022/07/13 12:23:27;;;;;;;2.78;1.95;;;33.50;56.30;;;;;;5032114;28;20073;-44
2022/07/13 12:26:05;;;;;;;4.80;1.80;;;33.60;56.60;;;;;;5033183;28;20132;-44
2022/07/13 12:28:31;;;;;;;3.90;1.92;;;33.60;56.80;;;;;;5033081;28;20478;-44
2022/07/13 12:30:59;;;;;;;2.88;1.85;;;33.50;56.70;;;;;;5032470;28;20111;-44
2022/07/13 12:33:26;;;;;;;5.95;2.00;;;33.40;55.40;;;;;;5031559;28;20057;-44
2022/07/13 12:36:04;;;;;;;4.40;2.17;;;33.30;56.70;;;;;;5031352;28;20499;-44
2022/07/13 12:38:31;;;;;;;3.05;1.60;;;33.20;55.90;;;;;;5031004;28;20055;-44
2022/07/13 12:41:00;;;;;;;9.02;2.10;;;33.10;57.00;;;;;;5032103;28;20057;-44
2022/07/13 12:43:28;;;;;;;4.15;2.00;;;32.90;57.10;;;;;;5030232;28;20438;-44
2022/07/13 12:45:55;;;;;;;5.25;1.65;;;33.00;56.10;;;;;;5031257;28;20053;-44
2022/07/13 12:48:23;;;;;;;4.63;1.80;;;33.00;55.50;;;;;;5030517;28;20087;-44
2022/07/13 12:51:01;;;;;;;3.30;1.67;;;33.00;55.70;;;;;;5027274;28;20058;-44
2022/07/13 12:53:46;;;;;;;3.83;1.60;;;32.90;55.50;;;;;;5024979;28;20844;-45
2022/07/13 12:56:13;;;;;;;4.80;1.90;;;32.80;56.80;;;;;;5030997;28;20139;-44
2022/07/13 12:58:41;;;;;;;2.17;1.23;;;32.90;56.20;;;;;;5029929;28;20048;-44
2022/07/13 13:01:07;;;;;;;9.20;2.10;;;33.00;56.80;;;;;;5030535;28;20409;-44
2022/07/13 13:03:34;;;;;;;6.30;1.77;;;33.10;57.10;;;;;;5028283;28;20124;-44